Time;durP1;ratioP1;P1;durP2;ratioP2;P2;SDS_P1;SDS_P2;PMS_P1;PMS_P2;Temp;Humidity;BMP_temperature;BMP_pressure;BME280_temperature;BME280_humidity;BME280_pressure;Samples;Min_cycle;Max_cycle;Signal;HPM_P1;HPM_P2
2021/05/03 00:01:15;;;;;;;10.65;2.90;;;;;;;;;;5035448;28;20044;-50
2021/05/03 00:03:41;;;;;;;9.32;2.95;;;;;;;;;;5035130;28;20018;-52
2021/05/03 00:06:08;;;;;;;11.07;2.83;;;;;;;;;;5035292;28;20044;-52
2021/05/03 00:08:34;;;;;;;5.55;1.90;;;;;;;;;;5034836;28;20033;-53
2021/05/03 00:11:00;;;;;;;11.95;2.58;;;;;;;;;;5034951;28;20116;-51
2021/05/03 00:13:26;;;;;;;11.00;2.63;;;;;;;;;;5035248;28;20034;-53
2021/05/03 00:15:53;;;;;;;7.97;1.98;;;;;;;;;;5035128;28;20033;-49
2021/05/03 00:18:19;;;;;;;12.35;2.25;;;;;;;;;;5034828;28;20036;-53
2021/05/03 00:20:46;;;;;;;6.93;1.70;;;;;;;;;;5034805;28;20087;-50
2021/05/03 00:23:12;;;;;;;9.07;1.63;;;;;;;;;;5034480;28;20022;-53
2021/05/03 00:25:38;;;;;;;8.10;1.50;;;;;;;;;;5034717;28;20056;-52
2021/05/03 00:28:04;;;;;;;8.85;2.13;;;;;;;;;;5034627;28;20017;-52
2021/05/03 00:30:30;;;;;;;7.63;2.08;;;;;;;;;;5034572;28;20462;-49
2021/05/03 00:32:57;;;;;;;4.05;1.42;;;;;;;;;;5034686;28;20040;-52
2021/05/03 00:35:23;;;;;;;5.80;1.30;;;;;;;;;;5034573;28;20033;-53
2021/05/03 00:37:49;;;;;;;7.32;1.23;;;;;;;;;;5034360;28;20512;-54
2021/05/03 00:40:15;;;;;;;5.25;1.30;;;;;;;;;;5034361;28;20473;-55
2021/05/03 00:42:44;;;;;;;10.00;1.48;;;;;;;;;;5034336;28;20033;-52
2021/05/03 00:45:11;;;;;;;8.35;1.38;;;;;;;;;;5034256;28;20032;-54
2021/05/03 00:47:37;;;;;;;6.28;1.20;;;;;;;;;;5034265;28;20079;-53
2021/05/03 00:50:04;;;;;;;6.55;1.30;;;;;;;;;;5034181;28;20018;-54
2021/05/03 00:52:31;;;;;;;6.82;1.50;;;;;;;;;;5033829;28;20103;-52
2021/05/03 00:54:57;;;;;;;8.13;1.17;;;;;;;;;;5034116;28;20053;-54
2021/05/03 00:57:23;;;;;;;9.05;2.00;;;;;;;;;;5034232;28;20029;-55
2021/05/03 00:59:49;;;;;;;4.43;1.20;;;;;;;;;;5034087;28;20431;-52
2021/05/03 01:02:15;;;;;;;7.55;1.50;;;;;;;;;;5034001;28;20029;-53
2021/05/03 01:04:41;;;;;;;5.25;1.40;;;;;;;;;;5032999;28;20547;-52
2021/05/03 01:07:08;;;;;;;9.57;2.03;;;;;;;;;;5033814;28;20469;-53
2021/05/03 01:09:34;;;;;;;8.32;2.17;;;;;;;;;;5033879;28;20097;-51
2021/05/03 01:12:00;;;;;;;7.03;1.88;;;;;;;;;;5033866;28;20017;-51
2021/05/03 01:14:26;;;;;;;7.95;1.95;;;;;;;;;;5033946;28;20032;-51
2021/05/03 01:16:52;;;;;;;4.30;1.52;;;;;;;;;;5033687;28;20041;-49
2021/05/03 01:19:21;;;;;;;8.07;2.08;;;;;;;;;;5033780;28;20041;-48
2021/05/03 01:21:48;;;;;;;9.05;2.20;;;;;;;;;;5034913;28;20054;-48
2021/05/03 01:24:15;;;;;;;8.82;1.58;;;;;;;;;;5033551;28;20032;-51
2021/05/03 01:26:41;;;;;;;6.55;1.63;;;;;;;;;;5033559;28;20485;-52
2021/05/03 01:29:07;;;;;;;9.07;1.80;;;;;;;;;;5033801;28;20349;-50
2021/05/03 01:31:34;;;;;;;5.97;1.60;;;;;;;;;;5033774;28;20095;-50
2021/05/03 01:34:06;;;;;;;7.82;1.65;;;;;;;;;;5033483;28;20033;-55
2021/05/03 01:36:36;;;;;;;8.40;1.63;;;;;;;;;;5033355;28;20045;-54
2021/05/03 01:39:02;;;;;;;7.05;1.77;;;;;;;;;;5033118;28;20026;-48
2021/05/03 01:41:28;;;;;;;7.40;1.77;;;;;;;;;;5033428;28;20466;-50
2021/05/03 01:43:54;;;;;;;6.25;1.60;;;;;;;;;;5033308;28;20083;-51
2021/05/03 01:46:20;;;;;;;7.88;1.55;;;;;;;;;;5033479;28;20030;-53
2021/05/03 01:48:46;;;;;;;7.85;1.92;;;;;;;;;;5033195;28;20026;-51
2021/05/03 01:51:12;;;;;;;4.63;1.30;;;;;;;;;;5033156;28;20033;-49
2021/05/03 01:53:39;;;;;;;5.85;1.33;;;;;;;;;;5032544;28;20133;-53
2021/05/03 01:56:05;;;;;;;6.90;1.50;;;;;;;;;;5033100;28;20030;-48
2021/05/03 01:58:31;;;;;;;7.28;1.55;;;;;;;;;;5033228;28;20033;-50
2021/05/03 02:01:00;;;;;;;8.57;1.85;;;;;;;;;;5033096;28;20079;-48
2021/05/03 02:03:27;;;;;;;4.45;1.35;;;;;;;;;;5033054;28;20026;-52
2021/05/03 02:05:53;;;;;;;5.57;1.30;;;;;;;;;;5032753;28;20021;-49
2021/05/03 02:08:20;;;;;;;6.43;1.30;;;;;;;;;;5032679;28;20030;-52
2021/05/03 02:10:47;;;;;;;4.70;1.00;;;;;;;;;;5032738;28;20071;-51
2021/05/03 02:13:14;;;;;;;6.00;1.52;;;;;;;;;;5032731;28;20026;-51
2021/05/03 02:15:40;;;;;;;6.18;1.50;;;;;;;;;;5033486;28;20034;-48
2021/05/03 02:18:06;;;;;;;5.72;1.20;;;;;;;;;;5032646;28;20028;-50
2021/05/03 02:20:33;;;;;;;10.75;1.95;;;;;;;;;;5032549;28;20142;-49
2021/05/03 02:23:00;;;;;;;7.15;2.30;;;;;;;;;;5032709;28;20034;-49
2021/05/03 02:25:27;;;;;;;5.65;1.65;;;;;;;;;;5032639;28;20469;-49
2021/05/03 02:27:53;;;;;;;5.32;1.50;;;;;;;;;;5032631;28;20382;-48
2021/05/03 02:30:19;;;;;;;8.45;1.95;;;;;;;;;;5032580;28;20452;-49
2021/05/03 02:32:46;;;;;;;8.10;1.70;;;;;;;;;;5032462;28;20036;-48
2021/05/03 02:35:15;;;;;;;11.45;2.60;;;;;;;;;;5032181;28;20068;-49
2021/05/03 02:37:42;;;;;;;6.75;1.67;;;;;;;;;;5292007;22;20049;-49
2021/05/03 02:40:08;;;;;;;10.30;2.17;;;;;;;;;;5032450;28;20042;-51
2021/05/03 02:42:34;;;;;;;7.18;2.42;;;;;;;;;;5032191;28;20036;-48
2021/05/03 02:45:01;;;;;;;6.68;1.80;;;;;;;;;;5032198;28;20516;-48
2021/05/03 02:47:27;;;;;;;9.57;1.70;;;;;;;;;;5032309;28;20029;-51
2021/05/03 02:49:54;;;;;;;11.20;2.30;;;;;;;;;;5032277;28;20060;-50
2021/05/03 02:52:20;;;;;;;5.30;1.65;;;;;;;;;;5032050;28;20026;-53
2021/05/03 02:54:46;;;;;;;6.97;1.67;;;;;;;;;;5031840;28;20018;-51
2021/05/03 02:57:12;;;;;;;5.80;1.52;;;;;;;;;;5032087;28;20040;-50
2021/05/03 02:59:38;;;;;;;9.30;1.67;;;;;;;;;;5031901;28;20068;-50
2021/05/03 03:02:04;;;;;;;6.68;1.40;;;;;;;;;;5031914;28;20033;-48
2021/05/03 03:04:30;;;;;;;13.45;1.92;;;;;;;;;;5032214;28;20032;-50
2021/05/03 03:06:56;;;;;;;5.95;1.40;;;;;;;;;;5032175;28;20377;-49
2021/05/03 03:09:23;;;;;;;8.02;1.77;;;;;;;;;;5031578;28;20025;-49
2021/05/03 03:11:49;;;;;;;7.35;2.28;;;;;;;;;;5031736;28;20022;-51
2021/05/03 03:14:15;;;;;;;5.97;2.13;;;;;;;;;;5031947;28;20026;-52
2021/05/03 03:16:42;;;;;;;9.45;1.65;;;;;;;;;;5031784;28;20037;-49
2021/05/03 03:19:08;;;;;;;8.30;1.80;;;;;;;;;;5031649;28;20028;-49
2021/05/03 03:21:34;;;;;;;9.63;1.70;;;;;;;;;;5031789;28;20032;-49
2021/05/03 03:24:00;;;;;;;7.45;1.55;;;;;;;;;;5031533;28;20037;-48
2021/05/03 03:26:27;;;;;;;9.32;1.80;;;;;;;;;;5031537;28;20079;-50
2021/05/03 03:28:53;;;;;;;8.57;2.10;;;;;;;;;;5031223;28;20392;-51
2021/05/03 03:31:19;;;;;;;10.60;2.63;;;;;;;;;;5031486;28;20049;-50
2021/05/03 03:33:45;;;;;;;7.72;2.20;;;;;;;;;;5031466;28;20017;-50
2021/05/03 03:36:11;;;;;;;9.77;1.63;;;;;;;;;;5031279;28;20061;-49
2021/05/03 03:38:37;;;;;;;9.13;1.65;;;;;;;;;;5031090;28;20049;-53
2021/05/03 03:41:03;;;;;;;8.05;1.98;;;;;;;;;;5031473;28;20025;-52
2021/05/03 03:43:30;;;;;;;10.82;1.58;;;;;;;;;;5031750;28;20021;-54
2021/05/03 03:45:56;;;;;;;6.72;1.50;;;;;;;;;;5031395;28;20026;-50
2021/05/03 03:48:22;;;;;;;9.95;1.77;;;;;;;;;;5031544;28;20044;-52
2021/05/03 03:50:48;;;;;;;6.97;1.75;;;;;;;;;;5031324;28;20461;-48
2021/05/03 03:53:14;;;;;;;6.93;2.03;;;;;;;;;;5031101;28;20029;-48
2021/05/03 03:55:41;;;;;;;7.07;1.48;;;;;;;;;;5031190;28;20045;-51
2021/05/03 03:58:07;;;;;;;8.15;1.70;;;;;;;;;;5031469;28;20022;-53
2021/05/03 04:00:33;;;;;;;7.03;2.40;;;;;;;;;;5031387;28;20488;-51
2021/05/03 04:03:00;;;;;;;8.85;1.80;;;;;;;;;;5031596;28;20036;-49
2021/05/03 04:26:57;;;;;;;5.78;1.70;;;;;;;;;;5022923;28;20037;-53
2021/05/03 04:29:23;;;;;;;11.68;1.88;;;;;;;;;;5031195;28;20128;-51
2021/05/03 04:31:49;;;;;;;10.20;1.88;;;;;;;;;;5030958;28;20061;-49
2021/05/03 04:34:15;;;;;;;10.50;2.15;;;;;;;;;;5030964;28;20097;-51
2021/05/03 04:36:41;;;;;;;11.93;1.88;;;;;;;;;;5030824;28;20037;-50
2021/05/03 04:39:07;;;;;;;8.82;2.35;;;;;;;;;;5030624;28;20049;-49
2021/05/03 04:41:33;;;;;;;11.25;2.65;;;;;;;;;;5034353;28;20060;-49
2021/05/03 04:43:59;;;;;;;7.35;1.67;;;;;;;;;;5034398;28;20022;-51
2021/05/03 04:46:25;;;;;;;9.63;2.15;;;;;;;;;;5034370;28;20025;-51
2021/05/03 04:48:51;;;;;;;7.05;1.45;;;;;;;;;;5034371;28;20369;-53
2021/05/03 04:51:17;;;;;;;7.55;1.80;;;;;;;;;;5034248;28;20025;-54
2021/05/03 04:53:44;;;;;;;11.00;2.15;;;;;;;;;;5034024;28;20018;-51
2021/05/03 04:56:10;;;;;;;12.20;2.13;;;;;;;;;;5034088;28;20120;-50
2021/05/03 04:58:36;;;;;;;8.82;1.98;;;;;;;;;;5034316;28;20103;-52
2021/05/03 05:01:02;;;;;;;5.75;1.80;;;;;;;;;;5034122;28;20025;-50
2021/05/03 05:03:28;;;;;;;10.77;1.70;;;;;;;;;;5034256;28;20029;-53
2021/05/03 05:05:54;;;;;;;8.15;2.30;;;;;;;;;;5034003;28;20469;-52
2021/05/03 05:08:22;;;;;;;5.35;1.95;;;;;;;;;;5033983;28;20026;-55
2021/05/03 05:10:48;;;;;;;12.98;2.47;;;;;;;;;;5033771;28;20026;-53
2021/05/03 05:13:14;;;;;;;8.10;1.83;;;;;;;;;;5033808;28;20025;-51
2021/05/03 05:15:40;;;;;;;10.38;2.75;;;;;;;;;;5033759;28;20041;-51
2021/05/03 05:18:07;;;;;;;4.68;1.35;;;;;;;;;;5034212;28;20026;-55
2021/05/03 05:20:33;;;;;;;7.18;2.05;;;;;;;;;;5033710;28;20033;-52
2021/05/03 05:22:59;;;;;;;8.05;1.90;;;;;;;;;;5033736;28;20039;-53
2021/05/03 05:25:25;;;;;;;6.45;1.70;;;;;;;;;;5033433;28;20477;-56
2021/05/03 05:27:51;;;;;;;7.05;1.77;;;;;;;;;;5033662;28;20084;-52
2021/05/03 05:30:18;;;;;;;6.68;1.92;;;;;;;;;;5033581;28;20104;-53
2021/05/03 05:32:44;;;;;;;9.10;1.63;;;;;;;;;;5033541;28;20029;-51
2021/05/03 05:35:10;;;;;;;8.43;1.73;;;;;;;;;;5033431;28;20539;-54
2021/05/03 05:37:36;;;;;;;9.20;2.65;;;;;;;;;;5033381;28;20119;-52
2021/05/03 05:40:03;;;;;;;6.72;1.10;;;;;;;;;;5033524;28;20469;-53
2021/05/03 05:42:29;;;;;;;1.75;0.77;;;;;;;;;;5033604;28;20396;-56
2021/05/03 05:44:55;;;;;;;2.88;0.90;;;;;;;;;;5033321;28;20112;-55
2021/05/03 05:47:21;;;;;;;2.65;0.90;;;;;;;;;;5033452;28;20048;-55
2021/05/03 05:49:47;;;;;;;4.68;1.15;;;;;;;;;;5033124;28;20033;-54
2021/05/03 05:52:13;;;;;;;2.40;0.80;;;;;;;;;;5032598;28;20064;-54
2021/05/03 05:54:39;;;;;;;2.75;1.00;;;;;;;;;;5033110;28;20380;-56
2021/05/03 05:57:05;;;;;;;3.30;0.90;;;;;;;;;;5032999;28;20033;-51
2021/05/03 05:59:32;;;;;;;4.75;1.00;;;;;;;;;;5033005;28;20033;-52
2021/05/03 06:01:58;;;;;;;5.25;1.20;;;;;;;;;;5033124;28;20029;-53
2021/05/03 06:04:24;;;;;;;3.70;1.30;;;;;;;;;;5032867;28;20021;-56
2021/05/03 06:06:50;;;;;;;2.13;0.88;;;;;;;;;;5032807;28;20021;-54
2021/05/03 06:09:16;;;;;;;2.75;0.80;;;;;;;;;;5032806;28;20025;-53
2021/05/03 06:11:42;;;;;;;3.92;0.80;;;;;;;;;;5032607;28;20025;-50
2021/05/03 06:14:08;;;;;;;3.20;0.85;;;;;;;;;;5032905;28;20104;-49
2021/05/03 06:16:34;;;;;;;6.30;1.25;;;;;;;;;;5032889;28;20037;-50
2021/05/03 06:19:00;;;;;;;5.10;0.85;;;;;;;;;;5032856;28;20049;-55
2021/05/03 06:21:27;;;;;;;5.32;1.23;;;;;;;;;;5032770;28;20026;-54
2021/05/03 06:23:53;;;;;;;4.35;1.13;;;;;;;;;;5032553;28;20029;-51
2021/05/03 06:26:19;;;;;;;4.82;1.20;;;;;;;;;;5032487;28;20038;-53
2021/05/03 06:28:45;;;;;;;3.10;0.80;;;;;;;;;;5032386;28;20080;-52
2021/05/03 06:31:11;;;;;;;5.25;1.08;;;;;;;;;;5032479;28;20419;-56
2021/05/03 06:33:38;;;;;;;5.35;1.10;;;;;;;;;;5032399;28;20687;-56
2021/05/03 06:36:04;;;;;;;4.68;1.10;;;;;;;;;;5032381;28;20042;-52
2021/05/03 06:38:30;;;;;;;5.15;1.20;;;;;;;;;;5032024;28;20056;-55
2021/05/03 06:40:56;;;;;;;4.93;0.90;;;;;;;;;;5032066;28;20025;-58
2021/05/03 06:43:23;;;;;;;4.13;0.93;;;;;;;;;;5032175;28;20026;-54
2021/05/03 06:45:49;;;;;;;5.22;1.02;;;;;;;;;;5032125;28;20045;-57
2021/05/03 06:48:15;;;;;;;5.80;0.93;;;;;;;;;;5032223;28;20030;-53
2021/05/03 06:50:44;;;;;;;4.90;1.02;;;;;;;;;;5032133;28;20265;-54
2021/05/03 06:53:12;;;;;;;6.63;1.20;;;;;;;;;;5032098;28;20111;-52
2021/05/03 06:55:38;;;;;;;4.82;1.17;;;;;;;;;;5031570;28;20044;-50
2021/05/03 06:58:04;;;;;;;3.50;1.10;;;;;;;;;;5032077;28;20029;-50
2021/05/03 07:00:31;;;;;;;6.75;1.45;;;;;;;;;;5032054;28;20047;-53
2021/05/03 07:02:58;;;;;;;7.60;1.55;;;;;;;;;;5031126;28;20056;-58
2021/05/03 07:05:24;;;;;;;5.70;1.25;;;;;;;;;;5031739;28;20029;-60
2021/05/03 07:07:50;;;;;;;3.90;1.10;;;;;;;;;;5032204;28;20099;-56
2021/05/03 07:10:16;;;;;;;6.72;1.08;;;;;;;;;;5031512;28;20022;-55
2021/05/03 07:12:44;;;;;;;7.20;0.93;;;;;;;;;;5031814;28;20377;-59
2021/05/03 07:15:11;;;;;;;12.10;1.25;;;;;;;;;;5031713;28;20416;-56
2021/05/03 07:17:37;;;;;;;7.50;1.20;;;;;;;;;;5031620;28;20029;-58
2021/05/03 07:20:05;;;;;;;10.77;1.52;;;;;;;;;;5031574;28;20027;-59
2021/05/03 07:22:31;;;;;;;8.80;1.58;;;;;;;;;;5031486;28;20021;-50
2021/05/03 07:24:57;;;;;;;4.32;0.95;;;;;;;;;;5031646;28;20107;-59
2021/05/03 07:27:24;;;;;;;6.38;1.20;;;;;;;;;;5031565;28;20021;-59
2021/05/03 07:29:50;;;;;;;4.50;1.42;;;;;;;;;;5031457;28;20026;-60
2021/05/03 07:32:16;;;;;;;6.75;0.90;;;;;;;;;;5031618;28;20052;-60
2021/05/03 07:34:42;;;;;;;6.60;1.15;;;;;;;;;;5031594;28;20025;-61
2021/05/03 07:37:08;;;;;;;4.00;0.90;;;;;;;;;;5013571;28;20041;-58
2021/05/03 07:39:34;;;;;;;7.72;1.10;;;;;;;;;;5031069;28;20091;-55
2021/05/03 07:42:01;;;;;;;4.70;1.20;;;;;;;;;;5031243;28;20025;-47
2021/05/03 07:44:28;;;;;;;7.85;0.98;;;;;;;;;;5031321;28;20100;-53
2021/05/03 07:46:54;;;;;;;9.13;1.08;;;;;;;;;;5031240;28;20036;-49
2021/05/03 07:49:20;;;;;;;4.97;1.10;;;;;;;;;;5031280;28;20018;-53
2021/05/03 07:51:46;;;;;;;6.03;0.82;;;;;;;;;;5031504;28;20027;-46
2021/05/03 07:54:15;;;;;;;5.45;1.25;;;;;;;;;;5031510;28;20049;-53
2021/05/03 07:56:42;;;;;;;5.18;1.38;;;;;;;;;;5030968;28;20038;-51
2021/05/03 07:59:08;;;;;;;4.68;0.80;;;;;;;;;;5031206;28;20079;-48
2021/05/03 08:01:34;;;;;;;7.80;1.52;;;;;;;;;;5031247;28;20535;-59
2021/05/03 08:04:00;;;;;;;7.03;1.13;;;;;;;;;;5031243;28;20075;-54
2021/05/03 08:06:26;;;;;;;5.43;0.88;;;;;;;;;;5031067;28;20029;-59
2021/05/03 08:08:52;;;;;;;12.85;1.23;;;;;;;;;;5031252;28;20026;-54
2021/05/03 08:11:20;;;;;;;4.45;0.98;;;;;;;;;;5031131;28;20053;-50
2021/05/03 08:13:47;;;;;;;4.55;1.13;;;;;;;;;;5033037;28;20021;-46
2021/05/03 08:16:15;;;;;;;4.10;1.13;;;;;;;;;;5034854;28;20451;-60
2021/05/03 08:18:42;;;;;;;3.33;0.77;;;;;;;;;;5035046;28;20029;-53
2021/05/03 08:21:08;;;;;;;3.05;0.90;;;;;;;;;;5034884;28;20045;-61
2021/05/03 08:23:35;;;;;;;5.97;1.50;;;;;;;;;;5034824;28;20112;-58
2021/05/03 08:26:01;;;;;;;2.92;0.80;;;;;;;;;;5034580;28;20026;-58
2021/05/03 08:28:27;;;;;;;2.25;0.80;;;;;;;;;;5034715;28;20029;-51
2021/05/03 08:30:53;;;;;;;5.20;1.48;;;;;;;;;;5034700;28;20025;-54
2021/05/03 08:33:20;;;;;;;5.82;1.15;;;;;;;;;;5034790;28;20039;-55
2021/05/03 08:35:46;;;;;;;4.80;1.08;;;;;;;;;;5034748;28;20025;-52
2021/05/03 08:38:14;;;;;;;5.10;0.90;;;;;;;;;;5034387;28;20060;-55
2021/05/03 08:40:40;;;;;;;4.50;1.10;;;;;;;;;;5034440;28;20029;-60
2021/05/03 08:43:06;;;;;;;4.25;1.30;;;;;;;;;;5034402;28;20033;-59
2021/05/03 08:45:33;;;;;;;6.57;1.10;;;;;;;;;;5034436;28;20021;-56
2021/05/03 08:53:55;;;;;;;6.82;1.10;;;;;;;;;;5029462;28;20504;-47
2021/05/03 08:56:21;;;;;;;6.72;1.40;;;;;;;;;;5034043;28;20041;-54
2021/05/03 08:58:47;;;;;;;4.38;1.20;;;;;;;;;;5034516;28;20377;-54
2021/05/03 09:01:13;;;;;;;6.43;1.52;;;;;;;;;;5034146;28;20040;-57
2021/05/03 09:03:41;;;;;;;3.47;1.05;;;;;;;;;;5034069;28;20025;-52
2021/05/03 09:06:10;;;;;;;3.75;1.08;;;;;;;;;;5034132;28;20030;-56
2021/05/03 09:08:36;;;;;;;10.75;2.00;;;;;;;;;;5034018;28;20025;-45
2021/05/03 09:11:02;;;;;;;3.85;1.35;;;;;;;;;;5033975;28;20025;-50
2021/05/03 09:13:32;;;;;;;7.07;1.38;;;;;;;;;;5033783;28;20036;-55
2021/05/03 09:16:14;;;;;;;7.05;1.83;;;;;;;;;;5033857;28;20037;-55
2021/05/03 09:18:41;;;;;;;5.40;1.40;;;;;;;;;;5033835;28;20041;-50
2021/05/03 09:21:16;;;;;;;8.10;1.30;;;;;;;;;;5033802;28;20025;-57
2021/05/03 09:24:01;;;;;;;7.93;1.42;;;;;;;;;;5033777;28;20424;-58
2021/05/03 09:26:34;;;;;;;7.43;1.33;;;;;;;;;;5032796;28;20030;-54
2021/05/03 09:29:01;;;;;;;5.70;1.25;;;;;;;;;;5033719;28;20519;-55
2021/05/03 09:31:27;;;;;;;5.30;1.58;;;;;;;;;;5033677;28;20024;-59
2021/05/03 09:33:53;;;;;;;5.60;1.27;;;;;;;;;;5033643;28;20053;-57
2021/05/03 09:36:22;;;;;;;4.05;1.33;;;;;;;;;;5033453;28;20092;-59
2021/05/03 09:38:50;;;;;;;5.20;1.40;;;;;;;;;;5033241;28;20049;-59
2021/05/03 09:41:26;;;;;;;4.15;1.35;;;;;;;;;;5033742;28;20022;-58
2021/05/03 09:44:06;;;;;;;4.00;1.10;;;;;;;;;;5033280;28;20109;-58
2021/05/03 09:46:39;;;;;;;6.20;1.40;;;;;;;;;;5033383;28;20069;-57
2021/05/03 09:49:16;;;;;;;5.20;1.30;;;;;;;;;;5015477;28;20424;-51
2021/05/03 09:51:42;;;;;;;7.40;1.50;;;;;;;;;;5033264;28;20045;-54
2021/05/03 09:54:29;;;;;;;4.07;1.10;;;;;;;;;;5033174;28;20026;-53
2021/05/03 09:57:24;;;;;;;3.97;1.05;;;;;;;;;;5032907;28;20060;-58
2021/05/03 09:59:53;;;;;;;7.40;1.15;;;;;;;;;;5020280;28;20393;-48
2021/05/03 10:02:34;;;;;;;6.22;1.30;;;;;;;;;;5033259;28;20034;-56
2021/05/03 10:05:16;;;;;;;4.57;1.10;;;;;;;;;;5032975;28;20468;-59
2021/05/03 10:07:51;;;;;;;3.17;1.08;;;;;;;;;;5033218;28;20026;-59
2021/05/03 10:10:22;;;;;;;6.53;1.63;;;;;;;;;;5032844;28;20041;-58
2021/05/03 10:12:49;;;;;;;8.40;1.57;;;;;;;;;;5032614;28;20504;-50
2021/05/03 10:15:16;;;;;;;3.70;1.05;;;;;;;;;;5032660;28;20381;-47
2021/05/03 10:17:44;;;;;;;6.72;1.50;;;;;;;;;;5032869;28;20033;-53
2021/05/03 10:20:11;;;;;;;7.63;1.30;;;;;;;;;;5032648;28;20036;-45
2021/05/03 10:22:37;;;;;;;3.83;1.05;;;;;;;;;;5032549;28;20473;-50
2021/05/03 10:25:07;;;;;;;7.35;1.00;;;;;;;;;;5032570;28;20033;-56
2021/05/03 10:27:33;;;;;;;5.75;1.17;;;;;;;;;;5032256;28;20491;-61
2021/05/03 10:30:13;;;;;;;5.50;1.30;;;;;;;;;;5032400;28;20538;-59
2021/05/03 10:32:41;;;;;;;6.78;1.70;;;;;;;;;;5032509;28;20029;-55
2021/05/03 10:35:36;;;;;;;5.65;1.50;;;;;;;;;;5032562;28;20373;-60
2021/05/03 10:38:03;;;;;;;7.05;1.20;;;;;;;;;;5019269;28;20362;-59
2021/05/03 10:40:35;;;;;;;4.30;1.17;;;;;;;;;;5032444;28;20033;-59
2021/05/03 10:43:04;;;;;;;6.00;1.33;;;;;;;;;;5032053;28;20022;-60
2021/05/03 10:45:41;;;;;;;5.95;1.20;;;;;;;;;;5032121;28;20022;-56
2021/05/03 10:48:53;;;;;;;5.65;1.30;;;;;;;;;;5032200;28;20026;-59
2021/05/03 10:54:22;;;;;;;3.30;1.15;;;;;;;;;;5031990;28;20048;-61
2021/05/03 10:56:49;;;;;;;3.92;1.30;;;;;;;;;;5023012;28;20424;-60
2021/05/03 10:59:16;;;;;;;3.08;1.00;;;;;;;;;;5031856;28;20075;-56
2021/05/03 11:01:55;;;;;;;5.28;1.85;;;;;;;;;;5032170;28;20022;-58
2021/05/03 11:04:22;;;;;;;3.78;0.80;;;;;;;;;;5032046;28;20028;-51
2021/05/03 11:06:48;;;;;;;5.93;1.67;;;;;;;;;;5031950;28;20029;-58
2021/05/03 11:09:34;;;;;;;3.97;1.05;;;;;;;;;;5031721;28;20033;-58
2021/05/03 11:12:01;;;;;;;6.28;1.50;;;;;;;;;;5031909;28;20025;-52
2021/05/03 11:14:30;;;;;;;5.10;1.13;;;;;;;;;;5031917;28;20030;-57
2021/05/03 11:17:23;;;;;;;3.70;1.10;;;;;;;;;;5031639;28;20037;-59
2021/05/03 11:22:42;;;;;;;5.20;1.27;;;;;;;;;;5031737;28;20505;-60
2021/05/03 11:25:18;;;;;;;5.07;1.73;;;;;;;;;;5031530;28;20032;-52
2021/05/03 11:30:30;;;;;;;5.82;1.20;;;;;;;;;;5031733;28;20072;-60
2021/05/03 11:33:03;;;;;;;5.25;1.00;;;;;;;;;;5031486;28;20029;-59
2021/05/03 11:46:10;;;;;;;4.47;1.50;;;;;;;;;;5031536;28;20370;-52
2021/05/03 11:48:36;;;;;;;5.78;1.58;;;;;;;;;;5031707;28;20025;-61
2021/05/03 11:51:04;;;;;;;4.30;1.25;;;;;;;;;;5035577;28;20469;-62
2021/05/03 11:53:37;;;;;;;4.40;1.30;;;;;;;;;;5035639;28;20025;-60
2021/05/03 11:56:18;;;;;;;4.93;1.00;;;;;;;;;;5035445;28;20030;-59
2021/05/03 11:58:48;;;;;;;2.78;1.10;;;;;;;;;;5035299;28;20056;-59
2021/05/03 12:01:15;;;;;;;6.03;1.42;;;;;;;;;;5035259;28;20033;-60
2021/05/03 12:03:41;;;;;;;8.00;1.75;;;;;;;;;;5035249;28;20045;-50
2021/05/03 12:06:08;;;;;;;3.80;1.38;;;;;;;;;;5035218;28;20029;-49
2021/05/03 12:08:34;;;;;;;8.02;1.27;;;;;;;;;;5035156;28;20030;-62
2021/05/03 12:11:07;;;;;;;3.95;1.17;;;;;;;;;;5035289;28;20078;-60
2021/05/03 12:13:33;;;;;;;4.13;1.50;;;;;;;;;;5034987;28;20028;-62
2021/05/03 12:15:59;;;;;;;9.55;1.35;;;;;;;;;;5035139;28;20030;-61
2021/05/03 12:18:25;;;;;;;8.43;1.50;;;;;;;;;;5035146;28;20041;-64
2021/05/03 12:20:53;;;;;;;7.10;1.50;;;;;;;;;;5034989;28;20040;-60
2021/05/03 12:23:24;;;;;;;3.70;1.30;;;;;;;;;;5034943;28;20350;-56
2021/05/03 12:25:51;;;;;;;9.38;1.60;;;;;;;;;;5034785;28;20079;-51
2021/05/03 12:28:18;;;;;;;3.85;1.10;;;;;;;;;;5034518;28;20037;-56
2021/05/03 12:30:44;;;;;;;4.60;1.20;;;;;;;;;;5034919;28;20124;-61
2021/05/03 12:33:17;;;;;;;4.22;1.20;;;;;;;;;;5034558;28;20021;-59
2021/05/03 12:35:44;;;;;;;5.18;1.30;;;;;;;;;;5034532;28;20029;-59
2021/05/03 12:38:14;;;;;;;6.28;1.20;;;;;;;;;;5034430;28;20060;-60
2021/05/03 12:40:40;;;;;;;4.97;1.42;;;;;;;;;;5034644;28;20499;-60
2021/05/03 12:43:07;;;;;;;5.47;1.13;;;;;;;;;;5034500;28;20079;-59
2021/05/03 12:48:37;;;;;;;5.20;1.35;;;;;;;;;;5026360;28;20124;-50
2021/05/03 12:51:25;;;;;;;3.30;1.38;;;;;;;;;;5034506;28;20071;-63
2021/05/03 12:54:09;;;;;;;3.70;1.20;;;;;;;;;;5034117;28;20041;-60
2021/05/03 12:56:53;;;;;;;3.42;1.45;;;;;;;;;;5034342;28;20029;-58
2021/05/03 12:59:31;;;;;;;3.75;1.42;;;;;;;;;;5034277;28;20392;-59
2021/05/03 13:02:16;;;;;;;6.43;1.33;;;;;;;;;;5032960;28;20033;-59
2021/05/03 13:04:53;;;;;;;3.53;1.45;;;;;;;;;;5034117;28;20018;-59
2021/05/03 13:29:40;;;;;;;4.80;1.20;;;;;;;;;;5033848;28;20152;-61
2021/05/03 13:32:07;;;;;;;2.85;1.10;;;;;;;;;;5033613;28;20048;-50
2021/05/03 13:34:33;;;;;;;4.88;1.35;;;;;;;;;;5033485;28;20469;-60
2021/05/03 13:36:59;;;;;;;3.63;1.50;;;;;;;;;;5033473;28;20526;-60
2021/05/03 13:39:25;;;;;;;3.40;1.30;;;;;;;;;;5033117;28;20135;-62
2021/05/03 13:41:52;;;;;;;3.45;1.50;;;;;;;;;;5033339;28;20024;-59
2021/05/03 13:44:18;;;;;;;4.90;1.15;;;;;;;;;;5033221;28;20458;-59
2021/05/03 13:46:46;;;;;;;4.03;1.23;;;;;;;;;;5033498;28;20382;-59
2021/05/03 13:49:12;;;;;;;3.38;1.30;;;;;;;;;;5033245;28;20028;-59
2021/05/03 13:51:38;;;;;;;3.25;1.27;;;;;;;;;;5033349;28;20044;-60
2021/05/03 13:54:05;;;;;;;5.18;1.60;;;;;;;;;;5033410;28;20013;-59
2021/05/03 13:56:31;;;;;;;3.42;1.10;;;;;;;;;;5033244;28;20451;-57
2021/05/03 13:58:57;;;;;;;4.30;1.33;;;;;;;;;;5032931;28;20108;-59
2021/05/03 14:01:24;;;;;;;3.00;1.20;;;;;;;;;;5032894;28;20604;-58
2021/05/03 14:03:50;;;;;;;6.70;1.27;;;;;;;;;;5032850;28;20025;-60
2021/05/03 14:06:18;;;;;;;4.95;1.10;;;;;;;;;;5032991;28;20028;-63
2021/05/03 14:08:45;;;;;;;5.40;1.30;;;;;;;;;;5032842;28;20029;-59
2021/05/03 14:11:11;;;;;;;4.43;1.30;;;;;;;;;;5032807;28;20025;-56
2021/05/03 14:13:38;;;;;;;3.22;0.85;;;;;;;;;;5032780;28;20080;-59
2021/05/03 14:16:04;;;;;;;5.70;1.30;;;;;;;;;;5032506;28;20048;-56
2021/05/03 14:18:31;;;;;;;3.67;1.00;;;;;;;;;;5032576;28;20025;-61
2021/05/03 14:21:00;;;;;;;6.13;1.20;;;;;;;;;;5032616;28;20354;-63
2021/05/03 14:23:26;;;;;;;4.70;1.10;;;;;;;;;;5032469;28;20108;-57
2021/05/03 14:25:53;;;;;;;5.32;1.23;;;;;;;;;;5032494;28;20021;-62
2021/05/03 14:28:41;;;;;;;3.05;1.20;;;;;;;;;;5032400;28;20059;-59
2021/05/03 14:31:14;;;;;;;3.13;1.30;;;;;;;;;;5032375;28;20049;-60
2021/05/03 14:33:43;;;;;;;3.97;1.20;;;;;;;;;;5032528;28;20076;-49
2021/05/03 14:36:10;;;;;;;4.65;1.20;;;;;;;;;;5032330;28;20033;-60
2021/05/03 14:38:37;;;;;;;4.03;1.25;;;;;;;;;;5032053;28;20053;-60
2021/05/03 14:41:04;;;;;;;3.55;1.00;;;;;;;;;;5032307;28;20036;-60
2021/05/03 14:43:30;;;;;;;3.45;1.27;;;;;;;;;;5032174;28;20034;-60
2021/05/03 14:56:02;;;;;;;;;;;;;;;;;;5032380;28;20040;-58
2021/05/03 14:58:28;;;;;;;3.45;1.30;;;;;;;;;;5031967;28;20296;-60
2021/05/03 15:00:54;;;;;;;3.60;1.23;;;;;;;;;;5031992;28;20025;-59
2021/05/03 15:03:20;;;;;;;4.28;1.25;;;;;;;;;;5031852;28;20025;-60
2021/05/03 15:05:51;;;;;;;3.67;1.33;;;;;;;;;;5031851;28;20029;-59
2021/05/03 15:08:17;;;;;;;3.55;1.40;;;;;;;;;;5031831;28;20030;-59
2021/05/03 15:10:43;;;;;;;3.92;1.13;;;;;;;;;;5031947;28;20465;-59
2021/05/03 15:13:22;;;;;;;5.35;1.33;;;;;;;;;;5031907;28;20045;-59
2021/05/03 15:16:01;;;;;;;3.83;1.20;;;;;;;;;;5031441;28;20037;-60
2021/05/03 15:19:18;;;;;;;4.07;1.60;;;;;;;;;;5031665;28;20025;-59
2021/05/03 15:21:36;;;;;;;3.17;1.40;;;;;;;;;;5023278;28;20033;-60
2021/05/03 15:24:08;;;;;;;4.13;1.20;;;;;;;;;;5031057;28;20430;-57
2021/05/03 15:26:34;;;;;;;4.78;1.38;;;;;;;;;;5031816;28;20044;-59
2021/05/03 15:33:56;;;;;;;2.97;1.25;;;;;;;;;;5031416;28;20026;-59
2021/05/03 15:36:22;;;;;;;2.53;1.23;;;;;;;;;;5031346;28;20432;-62
2021/05/03 15:38:48;;;;;;;2.97;1.23;;;;;;;;;;5031269;28;20107;-60
2021/05/03 15:41:18;;;;;;;3.70;1.27;;;;;;;;;;5031643;28;20113;-61
2021/05/03 15:43:46;;;;;;;2.80;1.10;;;;;;;;;;5031505;28;20068;-59
2021/05/03 15:46:13;;;;;;;5.13;1.50;;;;;;;;;;5031436;28;20022;-60
2021/05/03 15:48:40;;;;;;;4.50;1.88;;;;;;;;;;5031576;28;20061;-59
2021/05/03 15:51:09;;;;;;;7.95;1.25;;;;;;;;;;5031309;28;20100;-59
2021/05/03 15:53:35;;;;;;;6.40;1.55;;;;;;;;;;5031476;28;20370;-59
2021/05/03 15:56:03;;;;;;;5.68;1.50;;;;;;;;;;5031240;28;20025;-58
2021/05/03 15:58:29;;;;;;;3.88;1.33;;;;;;;;;;5031302;28;20030;-59
2021/05/03 16:00:55;;;;;;;5.15;1.40;;;;;;;;;;5031630;28;20029;-58
2021/05/03 16:03:22;;;;;;;5.50;2.25;;;;;;;;;;5031170;28;20612;-56
2021/05/03 16:05:48;;;;;;;3.75;1.48;;;;;;;;;;5031247;28;20072;-56
2021/05/03 16:08:14;;;;;;;3.42;1.65;;;;;;;;;;5031315;28;20061;-58
2021/05/03 16:10:41;;;;;;;3.83;1.40;;;;;;;;;;5031105;28;20128;-59
2021/05/03 16:13:07;;;;;;;3.85;1.20;;;;;;;;;;5031351;28;20117;-59
2021/05/03 16:15:34;;;;;;;5.50;1.40;;;;;;;;;;5030847;28;20029;-59